sensor_id;sensor_type;location;lat;lon;timestamp;P1;durP1;ratioP1;P2;durP2;ratioP2
7613;SDS011;3848;42.016;23.098;2022-10-16T00:01:35;16.90;;;15.77;;
7613;SDS011;3848;42.016;23.098;2022-10-16T00:04:02;16.23;;;15.17;;
7613;SDS011;3848;42.016;23.098;2022-10-16T00:06:29;16.00;;;14.87;;
7613;SDS011;3848;42.016;23.098;2022-10-16T00:08:57;15.27;;;14.37;;
7613;SDS011;3848;42.016;23.098;2022-10-16T00:11:26;17.03;;;15.83;;
7613;SDS011;3848;42.016;23.098;2022-10-16T00:13:55;15.50;;;14.70;;
7613;SDS011;3848;42.016;23.098;2022-10-16T00:16:23;17.10;;;16.00;;
7613;SDS011;3848;42.016;23.098;2022-10-16T00:18:50;17.53;;;16.43;;
7613;SDS011;3848;42.016;23.098;2022-10-16T00:21:18;16.93;;;15.70;;
7613;SDS011;3848;42.016;23.098;2022-10-16T00:23:46;17.07;;;15.83;;
7613;SDS011;3848;42.016;23.098;2022-10-16T00:26:17;16.40;;;15.20;;
7613;SDS011;3848;42.016;23.098;2022-10-16T00:28:46;15.63;;;14.53;;
7613;SDS011;3848;42.016;23.098;2022-10-16T00:31:13;17.00;;;15.73;;
7613;SDS011;3848;42.016;23.098;2022-10-16T00:33:41;15.43;;;14.50;;
7613;SDS011;3848;42.016;23.098;2022-10-16T00:36:09;16.70;;;15.40;;
7613;SDS011;3848;42.016;23.098;2022-10-16T00:38:37;15.53;;;14.67;;
7613;SDS011;3848;42.016;23.098;2022-10-16T00:41:04;18.20;;;16.37;;
7613;SDS011;3848;42.016;23.098;2022-10-16T00:43:32;16.50;;;15.60;;
7613;SDS011;3848;42.016;23.098;2022-10-16T00:46:03;16.17;;;15.17;;
7613;SDS011;3848;42.016;23.098;2022-10-16T00:48:32;16.03;;;14.93;;
7613;SDS011;3848;42.016;23.098;2022-10-16T00:50:59;16.37;;;15.37;;
7613;SDS011;3848;42.016;23.098;2022-10-16T00:53:25;15.93;;;14.83;;
7613;SDS011;3848;42.016;23.098;2022-10-16T00:55:54;14.63;;;13.83;;
7613;SDS011;3848;42.016;23.098;2022-10-16T00:58:21;15.03;;;14.13;;
7613;SDS011;3848;42.016;23.098;2022-10-16T01:00:48;15.50;;;14.23;;
7613;SDS011;3848;42.016;23.098;2022-10-16T01:03:26;14.03;;;13.03;;
7613;SDS011;3848;42.016;23.098;2022-10-16T01:05:59;14.70;;;13.80;;
7613;SDS011;3848;42.016;23.098;2022-10-16T01:08:37;14.43;;;13.53;;
7613;SDS011;3848;42.016;23.098;2022-10-16T01:11:12;14.17;;;13.17;;
7613;SDS011;3848;42.016;23.098;2022-10-16T01:13:48;14.23;;;13.33;;
7613;SDS011;3848;42.016;23.098;2022-10-16T01:16:22;14.93;;;13.90;;
7613;SDS011;3848;42.016;23.098;2022-10-16T01:19:00;13.53;;;12.63;;
7613;SDS011;3848;42.016;23.098;2022-10-16T01:21:36;13.20;;;12.43;;
7613;SDS011;3848;42.016;23.098;2022-10-16T01:24:07;13.73;;;12.93;;
7613;SDS011;3848;42.016;23.098;2022-10-16T01:26:46;14.00;;;13.13;;
7613;SDS011;3848;42.016;23.098;2022-10-16T01:29:27;13.73;;;12.57;;
7613;SDS011;3848;42.016;23.098;2022-10-16T01:32:01;11.73;;;11.13;;
7613;SDS011;3848;42.016;23.098;2022-10-16T01:34:37;12.63;;;11.80;;
7613;SDS011;3848;42.016;23.098;2022-10-16T01:37:09;13.40;;;12.50;;
7613;SDS011;3848;42.016;23.098;2022-10-16T01:39:42;12.23;;;11.53;;
7613;SDS011;3848;42.016;23.098;2022-10-16T01:42:14;12.33;;;11.63;;
7613;SDS011;3848;42.016;23.098;2022-10-16T01:44:46;13.13;;;12.33;;
7613;SDS011;3848;42.016;23.098;2022-10-16T01:47:14;13.73;;;12.73;;
7613;SDS011;3848;42.016;23.098;2022-10-16T01:49:43;13.17;;;12.47;;
7613;SDS011;3848;42.016;23.098;2022-10-16T01:52:12;12.83;;;12.03;;
7613;SDS011;3848;42.016;23.098;2022-10-16T01:54:43;12.80;;;12.00;;
7613;SDS011;3848;42.016;23.098;2022-10-16T01:57:14;12.20;;;11.40;;
7613;SDS011;3848;42.016;23.098;2022-10-16T01:59:45;12.57;;;11.87;;
7613;SDS011;3848;42.016;23.098;2022-10-16T02:02:15;13.20;;;12.20;;
7613;SDS011;3848;42.016;23.098;2022-10-16T02:04:45;12.20;;;11.40;;
7613;SDS011;3848;42.016;23.098;2022-10-16T02:07:15;23.80;;;11.83;;
7613;SDS011;3848;42.016;23.098;2022-10-16T02:09:42;13.37;;;12.17;;
7613;SDS011;3848;42.016;23.098;2022-10-16T02:12:10;12.53;;;11.63;;
7613;SDS011;3848;42.016;23.098;2022-10-16T02:14:42;19.67;;;12.50;;
7613;SDS011;3848;42.016;23.098;2022-10-16T02:17:13;12.70;;;11.53;;
7613;SDS011;3848;42.016;23.098;2022-10-16T02:19:41;12.73;;;11.80;;
7613;SDS011;3848;42.016;23.098;2022-10-16T02:22:12;12.67;;;11.60;;
7613;SDS011;3848;42.016;23.098;2022-10-16T02:24:46;13.20;;;12.20;;
7613;SDS011;3848;42.016;23.098;2022-10-16T02:27:19;13.10;;;12.00;;
7613;SDS011;3848;42.016;23.098;2022-10-16T02:29:53;12.23;;;11.47;;
7613;SDS011;3848;42.016;23.098;2022-10-16T02:32:27;12.43;;;11.50;;
7613;SDS011;3848;42.016;23.098;2022-10-16T02:34:57;15.60;;;10.63;;
7613;SDS011;3848;42.016;23.098;2022-10-16T02:37:26;12.43;;;11.53;;
7613;SDS011;3848;42.016;23.098;2022-10-16T02:39:55;13.47;;;12.27;;
7613;SDS011;3848;42.016;23.098;2022-10-16T02:42:27;12.70;;;11.50;;
7613;SDS011;3848;42.016;23.098;2022-10-16T02:44:56;11.73;;;10.93;;
7613;SDS011;3848;42.016;23.098;2022-10-16T02:47:23;12.80;;;11.70;;
7613;SDS011;3848;42.016;23.098;2022-10-16T02:49:49;11.93;;;11.23;;
7613;SDS011;3848;42.016;23.098;2022-10-16T02:52:16;12.47;;;11.63;;
7613;SDS011;3848;42.016;23.098;2022-10-16T02:54:43;11.93;;;11.10;;
7613;SDS011;3848;42.016;23.098;2022-10-16T02:57:10;12.13;;;11.37;;
7613;SDS011;3848;42.016;23.098;2022-10-16T02:59:36;13.37;;;12.27;;
7613;SDS011;3848;42.016;23.098;2022-10-16T03:02:05;12.77;;;11.77;;
7613;SDS011;3848;42.016;23.098;2022-10-16T03:04:31;12.70;;;11.80;;
7613;SDS011;3848;42.016;23.098;2022-10-16T03:06:58;12.17;;;11.47;;
7613;SDS011;3848;42.016;23.098;2022-10-16T03:09:25;12.03;;;11.33;;
7613;SDS011;3848;42.016;23.098;2022-10-16T03:11:52;11.30;;;10.70;;
7613;SDS011;3848;42.016;23.098;2022-10-16T03:14:19;12.90;;;11.90;;
7613;SDS011;3848;42.016;23.098;2022-10-16T03:16:45;12.53;;;11.73;;
7613;SDS011;3848;42.016;23.098;2022-10-16T03:19:15;12.60;;;11.67;;
7613;SDS011;3848;42.016;23.098;2022-10-16T03:21:42;12.47;;;11.77;;
7613;SDS011;3848;42.016;23.098;2022-10-16T03:24:09;12.63;;;11.80;;
7613;SDS011;3848;42.016;23.098;2022-10-16T03:26:35;11.37;;;10.70;;
7613;SDS011;3848;42.016;23.098;2022-10-16T03:29:03;12.43;;;11.63;;
7613;SDS011;3848;42.016;23.098;2022-10-16T03:31:30;12.47;;;11.47;;
7613;SDS011;3848;42.016;23.098;2022-10-16T03:33:57;12.50;;;11.70;;
7613;SDS011;3848;42.016;23.098;2022-10-16T03:36:25;12.47;;;11.47;;
7613;SDS011;3848;42.016;23.098;2022-10-16T03:38:52;12.07;;;11.23;;
7613;SDS011;3848;42.016;23.098;2022-10-16T03:41:19;12.83;;;11.70;;
7613;SDS011;3848;42.016;23.098;2022-10-16T03:43:45;12.97;;;11.70;;
7613;SDS011;3848;42.016;23.098;2022-10-16T03:46:12;19.57;;;16.77;;
7613;SDS011;3848;42.016;23.098;2022-10-16T03:48:39;12.80;;;12.00;;
7613;SDS011;3848;42.016;23.098;2022-10-16T03:51:06;13.00;;;12.10;;
7613;SDS011;3848;42.016;23.098;2022-10-16T03:53:34;18.07;;;11.20;;
7613;SDS011;3848;42.016;23.098;2022-10-16T03:56:01;11.97;;;11.13;;
7613;SDS011;3848;42.016;23.098;2022-10-16T03:58:28;12.07;;;11.23;;
7613;SDS011;3848;42.016;23.098;2022-10-16T04:00:54;13.67;;;12.57;;
7613;SDS011;3848;42.016;23.098;2022-10-16T04:03:21;12.93;;;11.57;;
7613;SDS011;3848;42.016;23.098;2022-10-16T04:05:48;12.73;;;11.50;;
7613;SDS011;3848;42.016;23.098;2022-10-16T04:08:15;12.17;;;11.27;;
7613;SDS011;3848;42.016;23.098;2022-10-16T04:10:44;13.13;;;12.03;;
7613;SDS011;3848;42.016;23.098;2022-10-16T04:13:11;12.43;;;11.63;;
7613;SDS011;3848;42.016;23.098;2022-10-16T04:15:38;12.10;;;11.03;;
7613;SDS011;3848;42.016;23.098;2022-10-16T04:18:05;13.13;;;12.17;;
7613;SDS011;3848;42.016;23.098;2022-10-16T04:20:32;12.67;;;11.73;;
7613;SDS011;3848;42.016;23.098;2022-10-16T04:23:00;12.97;;;12.17;;
7613;SDS011;3848;42.016;23.098;2022-10-16T04:25:26;13.80;;;12.23;;
7613;SDS011;3848;42.016;23.098;2022-10-16T04:27:55;13.10;;;12.30;;
7613;SDS011;3848;42.016;23.098;2022-10-16T04:30:22;13.33;;;12.17;;
7613;SDS011;3848;42.016;23.098;2022-10-16T04:32:49;13.37;;;12.50;;
7613;SDS011;3848;42.016;23.098;2022-10-16T04:35:17;12.50;;;11.60;;
7613;SDS011;3848;42.016;23.098;2022-10-16T04:37:44;13.87;;;12.80;;
7613;SDS011;3848;42.016;23.098;2022-10-16T04:40:11;13.47;;;12.37;;
7613;SDS011;3848;42.016;23.098;2022-10-16T04:42:38;13.83;;;12.57;;
7613;SDS011;3848;42.016;23.098;2022-10-16T04:45:07;13.53;;;12.63;;
7613;SDS011;3848;42.016;23.098;2022-10-16T04:47:35;14.27;;;13.07;;
7613;SDS011;3848;42.016;23.098;2022-10-16T04:50:01;13.97;;;12.87;;
7613;SDS011;3848;42.016;23.098;2022-10-16T04:52:28;13.83;;;12.83;;
7613;SDS011;3848;42.016;23.098;2022-10-16T04:54:56;13.10;;;12.20;;
7613;SDS011;3848;42.016;23.098;2022-10-16T04:57:26;12.33;;;11.50;;
7613;SDS011;3848;42.016;23.098;2022-10-16T04:59:53;13.43;;;12.50;;
7613;SDS011;3848;42.016;23.098;2022-10-16T05:02:21;13.10;;;12.10;;
7613;SDS011;3848;42.016;23.098;2022-10-16T05:04:48;12.10;;;11.23;;
7613;SDS011;3848;42.016;23.098;2022-10-16T05:07:14;13.07;;;12.07;;
7613;SDS011;3848;42.016;23.098;2022-10-16T05:09:41;13.10;;;12.10;;
7613;SDS011;3848;42.016;23.098;2022-10-16T05:12:08;13.20;;;12.30;;
7613;SDS011;3848;42.016;23.098;2022-10-16T05:14:35;13.77;;;12.70;;
7613;SDS011;3848;42.016;23.098;2022-10-16T05:17:02;14.03;;;12.77;;
7613;SDS011;3848;42.016;23.098;2022-10-16T05:19:30;14.53;;;13.47;;
7613;SDS011;3848;42.016;23.098;2022-10-16T05:21:57;21.07;;;12.43;;
7613;SDS011;3848;42.016;23.098;2022-10-16T05:24:24;15.60;;;13.93;;
7613;SDS011;3848;42.016;23.098;2022-10-16T05:26:51;13.67;;;12.70;;
7613;SDS011;3848;42.016;23.098;2022-10-16T05:29:18;14.77;;;13.43;;
7613;SDS011;3848;42.016;23.098;2022-10-16T05:31:45;15.43;;;13.80;;
7613;SDS011;3848;42.016;23.098;2022-10-16T05:34:11;13.83;;;12.47;;
7613;SDS011;3848;42.016;23.098;2022-10-16T05:36:40;13.63;;;12.67;;
7613;SDS011;3848;42.016;23.098;2022-10-16T05:39:07;14.67;;;13.47;;
7613;SDS011;3848;42.016;23.098;2022-10-16T05:41:33;15.57;;;14.13;;
7613;SDS011;3848;42.016;23.098;2022-10-16T05:44:03;15.40;;;14.20;;
7613;SDS011;3848;42.016;23.098;2022-10-16T05:46:30;15.37;;;14.13;;
7613;SDS011;3848;42.016;23.098;2022-10-16T05:48:57;17.30;;;13.87;;
7613;SDS011;3848;42.016;23.098;2022-10-16T05:51:24;15.23;;;13.93;;
7613;SDS011;3848;42.016;23.098;2022-10-16T05:53:53;14.37;;;13.37;;
7613;SDS011;3848;42.016;23.098;2022-10-16T05:56:19;16.20;;;14.97;;
7613;SDS011;3848;42.016;23.098;2022-10-16T05:58:46;15.60;;;14.30;;
7613;SDS011;3848;42.016;23.098;2022-10-16T06:01:13;17.13;;;15.77;;
7613;SDS011;3848;42.016;23.098;2022-10-16T06:03:41;16.13;;;15.07;;
7613;SDS011;3848;42.016;23.098;2022-10-16T06:06:08;16.13;;;14.93;;
7613;SDS011;3848;42.016;23.098;2022-10-16T06:08:36;16.80;;;15.30;;
7613;SDS011;3848;42.016;23.098;2022-10-16T06:11:05;16.20;;;14.90;;
7613;SDS011;3848;42.016;23.098;2022-10-16T06:13:32;22.77;;;15.23;;
7613;SDS011;3848;42.016;23.098;2022-10-16T06:16:00;15.93;;;14.37;;
7613;SDS011;3848;42.016;23.098;2022-10-16T06:18:28;14.87;;;13.67;;
7613;SDS011;3848;42.016;23.098;2022-10-16T06:20:56;16.17;;;14.80;;
7613;SDS011;3848;42.016;23.098;2022-10-16T06:23:23;16.30;;;14.60;;
7613;SDS011;3848;42.016;23.098;2022-10-16T06:25:50;17.70;;;15.80;;
7613;SDS011;3848;42.016;23.098;2022-10-16T06:28:19;16.57;;;15.13;;
7613;SDS011;3848;42.016;23.098;2022-10-16T06:30:45;15.77;;;14.30;;
7613;SDS011;3848;42.016;23.098;2022-10-16T06:33:12;17.63;;;16.13;;
7613;SDS011;3848;42.016;23.098;2022-10-16T06:35:39;17.17;;;15.37;;
7613;SDS011;3848;42.016;23.098;2022-10-16T06:38:06;16.17;;;14.97;;
7613;SDS011;3848;42.016;23.098;2022-10-16T06:40:33;14.90;;;13.80;;
7613;SDS011;3848;42.016;23.098;2022-10-16T06:42:59;16.37;;;14.97;;
7613;SDS011;3848;42.016;23.098;2022-10-16T06:45:27;15.97;;;14.63;;
7613;SDS011;3848;42.016;23.098;2022-10-16T06:47:54;14.93;;;13.83;;
7613;SDS011;3848;42.016;23.098;2022-10-16T06:50:21;17.83;;;13.47;;
7613;SDS011;3848;42.016;23.098;2022-10-16T06:52:48;15.07;;;13.97;;
7613;SDS011;3848;42.016;23.098;2022-10-16T06:55:15;13.23;;;12.33;;
7613;SDS011;3848;42.016;23.098;2022-10-16T06:57:42;14.20;;;13.03;;
7613;SDS011;3848;42.016;23.098;2022-10-16T07:00:09;13.70;;;12.73;;
7613;SDS011;3848;42.016;23.098;2022-10-16T07:02:38;12.60;;;11.63;;
7613;SDS011;3848;42.016;23.098;2022-10-16T07:05:05;13.87;;;12.50;;
7613;SDS011;3848;42.016;23.098;2022-10-16T07:07:32;15.10;;;13.43;;
7613;SDS011;3848;42.016;23.098;2022-10-16T07:09:59;14.10;;;12.93;;
7613;SDS011;3848;42.016;23.098;2022-10-16T07:12:25;14.67;;;13.37;;
7613;SDS011;3848;42.016;23.098;2022-10-16T07:14:52;15.90;;;14.20;;
7613;SDS011;3848;42.016;23.098;2022-10-16T07:17:20;14.07;;;12.87;;
7613;SDS011;3848;42.016;23.098;2022-10-16T07:19:48;13.00;;;12.00;;
7613;SDS011;3848;42.016;23.098;2022-10-16T07:22:18;13.27;;;12.33;;
7613;SDS011;3848;42.016;23.098;2022-10-16T07:24:45;13.17;;;12.17;;
7613;SDS011;3848;42.016;23.098;2022-10-16T07:27:11;13.20;;;12.40;;
7613;SDS011;3848;42.016;23.098;2022-10-16T07:29:38;14.60;;;13.30;;
7613;SDS011;3848;42.016;23.098;2022-10-16T07:32:05;13.30;;;12.33;;
7613;SDS011;3848;42.016;23.098;2022-10-16T07:34:32;14.33;;;13.13;;
7613;SDS011;3848;42.016;23.098;2022-10-16T07:37:00;17.17;;;14.37;;
7613;SDS011;3848;42.016;23.098;2022-10-16T07:39:27;14.50;;;13.37;;
7613;SDS011;3848;42.016;23.098;2022-10-16T07:41:54;13.83;;;12.93;;
7613;SDS011;3848;42.016;23.098;2022-10-16T07:44:21;13.37;;;12.47;;
7613;SDS011;3848;42.016;23.098;2022-10-16T07:46:48;13.03;;;12.17;;
7613;SDS011;3848;42.016;23.098;2022-10-16T07:49:14;14.93;;;13.53;;
7613;SDS011;3848;42.016;23.098;2022-10-16T07:51:41;14.00;;;12.40;;
7613;SDS011;3848;42.016;23.098;2022-10-16T07:54:09;13.70;;;12.67;;
7613;SDS011;3848;42.016;23.098;2022-10-16T07:56:36;13.37;;;12.47;;
7613;SDS011;3848;42.016;23.098;2022-10-16T07:59:03;14.43;;;13.43;;
7613;SDS011;3848;42.016;23.098;2022-10-16T08:01:30;15.17;;;13.97;;
7613;SDS011;3848;42.016;23.098;2022-10-16T08:03:57;16.70;;;15.57;;
7613;SDS011;3848;42.016;23.098;2022-10-16T08:06:24;16.40;;;14.73;;
7613;SDS011;3848;42.016;23.098;2022-10-16T08:08:50;17.60;;;16.43;;
7613;SDS011;3848;42.016;23.098;2022-10-16T08:11:19;17.13;;;15.90;;
7613;SDS011;3848;42.016;23.098;2022-10-16T08:13:46;16.80;;;15.50;;
7613;SDS011;3848;42.016;23.098;2022-10-16T08:16:12;16.50;;;15.47;;
7613;SDS011;3848;42.016;23.098;2022-10-16T08:18:40;16.80;;;15.70;;
7613;SDS011;3848;42.016;23.098;2022-10-16T08:21:08;16.23;;;15.23;;
7613;SDS011;3848;42.016;23.098;2022-10-16T08:23:39;15.97;;;14.87;;
7613;SDS011;3848;42.016;23.098;2022-10-16T08:26:06;16.47;;;15.23;;
7613;SDS011;3848;42.016;23.098;2022-10-16T08:28:36;15.43;;;14.07;;
7613;SDS011;3848;42.016;23.098;2022-10-16T08:31:06;15.70;;;14.50;;
7613;SDS011;3848;42.016;23.098;2022-10-16T08:33:35;15.07;;;13.77;;
7613;SDS011;3848;42.016;23.098;2022-10-16T08:36:02;15.97;;;14.47;;
7613;SDS011;3848;42.016;23.098;2022-10-16T08:38:30;15.07;;;13.83;;
7613;SDS011;3848;42.016;23.098;2022-10-16T08:41:00;15.00;;;13.67;;
7613;SDS011;3848;42.016;23.098;2022-10-16T08:43:43;15.13;;;13.87;;
7613;SDS011;3848;42.016;23.098;2022-10-16T08:46:24;14.47;;;13.37;;
7613;SDS011;3848;42.016;23.098;2022-10-16T08:49:01;14.17;;;13.07;;
7613;SDS011;3848;42.016;23.098;2022-10-16T08:51:29;13.73;;;12.70;;
7613;SDS011;3848;42.016;23.098;2022-10-16T08:53:58;22.33;;;20.87;;
7613;SDS011;3848;42.016;23.098;2022-10-16T08:56:29;15.93;;;14.57;;
7613;SDS011;3848;42.016;23.098;2022-10-16T08:58:57;14.03;;;13.20;;
7613;SDS011;3848;42.016;23.098;2022-10-16T09:01:25;14.07;;;12.93;;
7613;SDS011;3848;42.016;23.098;2022-10-16T09:04:19;14.83;;;13.53;;
7613;SDS011;3848;42.016;23.098;2022-10-16T09:06:59;14.30;;;13.33;;
7613;SDS011;3848;42.016;23.098;2022-10-16T09:09:40;14.13;;;13.07;;
7613;SDS011;3848;42.016;23.098;2022-10-16T09:12:21;14.30;;;13.17;;
7613;SDS011;3848;42.016;23.098;2022-10-16T09:14:58;15.93;;;14.63;;
7613;SDS011;3848;42.016;23.098;2022-10-16T09:17:36;15.03;;;13.90;;
7613;SDS011;3848;42.016;23.098;2022-10-16T09:20:14;14.17;;;12.80;;
7613;SDS011;3848;42.016;23.098;2022-10-16T09:22:46;13.40;;;12.60;;
7613;SDS011;3848;42.016;23.098;2022-10-16T09:25:14;14.47;;;13.57;;
7613;SDS011;3848;42.016;23.098;2022-10-16T09:27:42;17.07;;;15.47;;
7613;SDS011;3848;42.016;23.098;2022-10-16T09:30:14;15.93;;;15.00;;
7613;SDS011;3848;42.016;23.098;2022-10-16T09:32:43;16.60;;;15.60;;
7613;SDS011;3848;42.016;23.098;2022-10-16T09:35:13;18.67;;;17.47;;
7613;SDS011;3848;42.016;23.098;2022-10-16T09:37:43;16.13;;;15.23;;
7613;SDS011;3848;42.016;23.098;2022-10-16T09:40:12;16.00;;;15.00;;
7613;SDS011;3848;42.016;23.098;2022-10-16T09:42:40;17.90;;;16.50;;
7613;SDS011;3848;42.016;23.098;2022-10-16T09:45:20;17.80;;;16.80;;
7613;SDS011;3848;42.016;23.098;2022-10-16T09:47:49;17.30;;;16.17;;
7613;SDS011;3848;42.016;23.098;2022-10-16T09:50:20;18.03;;;16.83;;
7613;SDS011;3848;42.016;23.098;2022-10-16T09:52:50;19.27;;;18.07;;
7613;SDS011;3848;42.016;23.098;2022-10-16T09:55:17;18.33;;;17.17;;
7613;SDS011;3848;42.016;23.098;2022-10-16T09:57:51;22.73;;;20.77;;
7613;SDS011;3848;42.016;23.098;2022-10-16T10:00:20;24.20;;;22.77;;
7613;SDS011;3848;42.016;23.098;2022-10-16T10:02:48;22.83;;;21.53;;
7613;SDS011;3848;42.016;23.098;2022-10-16T10:05:20;23.87;;;22.10;;
7613;SDS011;3848;42.016;23.098;2022-10-16T10:07:53;22.63;;;21.13;;
7613;SDS011;3848;42.016;23.098;2022-10-16T10:10:23;21.03;;;19.63;;
7613;SDS011;3848;42.016;23.098;2022-10-16T10:12:52;22.20;;;20.87;;
7613;SDS011;3848;42.016;23.098;2022-10-16T10:15:21;22.20;;;20.63;;
7613;SDS011;3848;42.016;23.098;2022-10-16T10:17:50;21.23;;;19.87;;
7613;SDS011;3848;42.016;23.098;2022-10-16T10:20:22;19.40;;;18.30;;
7613;SDS011;3848;42.016;23.098;2022-10-16T10:22:51;20.23;;;18.67;;
7613;SDS011;3848;42.016;23.098;2022-10-16T10:25:24;20.83;;;19.30;;
7613;SDS011;3848;42.016;23.098;2022-10-16T10:28:17;21.77;;;20.47;;
7613;SDS011;3848;42.016;23.098;2022-10-16T10:31:02;19.40;;;18.07;;
7613;SDS011;3848;42.016;23.098;2022-10-16T10:33:38;19.13;;;18.03;;
7613;SDS011;3848;42.016;23.098;2022-10-16T10:36:22;18.67;;;17.67;;
7613;SDS011;3848;42.016;23.098;2022-10-16T10:38:56;20.50;;;19.10;;
7613;SDS011;3848;42.016;23.098;2022-10-16T10:44:48;21.17;;;20.03;;
7613;SDS011;3848;42.016;23.098;2022-10-16T10:47:27;21.97;;;20.77;;
7613;SDS011;3848;42.016;23.098;2022-10-16T10:50:07;20.53;;;19.43;;
7613;SDS011;3848;42.016;23.098;2022-10-16T10:52:44;17.43;;;16.23;;
7613;SDS011;3848;42.016;23.098;2022-10-16T10:55:20;19.67;;;18.33;;
7613;SDS011;3848;42.016;23.098;2022-10-16T10:58:06;17.70;;;16.50;;
7613;SDS011;3848;42.016;23.098;2022-10-16T11:00:47;18.20;;;17.00;;
7613;SDS011;3848;42.016;23.098;2022-10-16T11:03:31;16.73;;;15.73;;
7613;SDS011;3848;42.016;23.098;2022-10-16T11:06:10;18.23;;;16.90;;
7613;SDS011;3848;42.016;23.098;2022-10-16T11:08:43;18.60;;;17.50;;
7613;SDS011;3848;42.016;23.098;2022-10-16T11:11:15;17.33;;;16.17;;
7613;SDS011;3848;42.016;23.098;2022-10-16T11:13:49;16.83;;;15.70;;
7613;SDS011;3848;42.016;23.098;2022-10-16T11:16:22;19.00;;;17.57;;
7613;SDS011;3848;42.016;23.098;2022-10-16T11:18:56;18.07;;;16.93;;
7613;SDS011;3848;42.016;23.098;2022-10-16T11:21:29;17.77;;;16.77;;
7613;SDS011;3848;42.016;23.098;2022-10-16T11:24:04;16.10;;;14.87;;
7613;SDS011;3848;42.016;23.098;2022-10-16T11:26:41;16.53;;;15.47;;
7613;SDS011;3848;42.016;23.098;2022-10-16T11:29:10;16.57;;;15.57;;
7613;SDS011;3848;42.016;23.098;2022-10-16T11:31:43;16.80;;;15.67;;
7613;SDS011;3848;42.016;23.098;2022-10-16T11:34:16;15.00;;;14.00;;
7613;SDS011;3848;42.016;23.098;2022-10-16T11:36:51;14.83;;;14.00;;
7613;SDS011;3848;42.016;23.098;2022-10-16T11:39:22;15.60;;;14.57;;
7613;SDS011;3848;42.016;23.098;2022-10-16T11:41:53;15.43;;;14.53;;
7613;SDS011;3848;42.016;23.098;2022-10-16T11:44:26;16.63;;;15.43;;
7613;SDS011;3848;42.016;23.098;2022-10-16T11:47:06;15.43;;;14.53;;
7613;SDS011;3848;42.016;23.098;2022-10-16T11:49:40;16.97;;;15.77;;
7613;SDS011;3848;42.016;23.098;2022-10-16T11:52:11;15.37;;;14.43;;
7613;SDS011;3848;42.016;23.098;2022-10-16T11:54:44;14.70;;;13.60;;
7613;SDS011;3848;42.016;23.098;2022-10-16T11:57:16;15.30;;;14.40;;
7613;SDS011;3848;42.016;23.098;2022-10-16T11:59:47;16.40;;;15.23;;
7613;SDS011;3848;42.016;23.098;2022-10-16T12:02:26;16.50;;;15.30;;
7613;SDS011;3848;42.016;23.098;2022-10-16T12:05:15;15.20;;;14.10;;
7613;SDS011;3848;42.016;23.098;2022-10-16T12:07:51;16.50;;;15.30;;
7613;SDS011;3848;42.016;23.098;2022-10-16T12:10:27;15.80;;;14.80;;
7613;SDS011;3848;42.016;23.098;2022-10-16T12:12:56;15.17;;;14.23;;
7613;SDS011;3848;42.016;23.098;2022-10-16T12:15:24;15.43;;;14.40;;
7613;SDS011;3848;42.016;23.098;2022-10-16T12:17:52;15.40;;;14.37;;
7613;SDS011;3848;42.016;23.098;2022-10-16T12:20:23;13.90;;;12.70;;
7613;SDS011;3848;42.016;23.098;2022-10-16T12:22:53;14.97;;;13.97;;
7613;SDS011;3848;42.016;23.098;2022-10-16T12:25:22;16.03;;;15.03;;
7613;SDS011;3848;42.016;23.098;2022-10-16T12:27:57;14.87;;;13.67;;
7613;SDS011;3848;42.016;23.098;2022-10-16T12:30:26;15.13;;;14.03;;
7613;SDS011;3848;42.016;23.098;2022-10-16T12:32:55;15.30;;;14.33;;
7613;SDS011;3848;42.016;23.098;2022-10-16T12:35:26;15.70;;;14.60;;
7613;SDS011;3848;42.016;23.098;2022-10-16T12:38:03;14.13;;;13.13;;
7613;SDS011;3848;42.016;23.098;2022-10-16T12:40:33;14.93;;;13.93;;
7613;SDS011;3848;42.016;23.098;2022-10-16T12:43:10;14.50;;;13.70;;
7613;SDS011;3848;42.016;23.098;2022-10-16T12:45:39;15.57;;;14.33;;
7613;SDS011;3848;42.016;23.098;2022-10-16T12:48:18;16.40;;;14.97;;
7613;SDS011;3848;42.016;23.098;2022-10-16T12:50:49;16.27;;;15.17;;
7613;SDS011;3848;42.016;23.098;2022-10-16T12:53:19;16.73;;;15.83;;
7613;SDS011;3848;42.016;23.098;2022-10-16T12:55:51;18.20;;;17.10;;
7613;SDS011;3848;42.016;23.098;2022-10-16T13:01:17;15.87;;;14.97;;
7613;SDS011;3848;42.016;23.098;2022-10-16T13:04:00;16.47;;;15.17;;
7613;SDS011;3848;42.016;23.098;2022-10-16T13:06:49;16.23;;;14.67;;
7613;SDS011;3848;42.016;23.098;2022-10-16T13:09:25;15.53;;;13.93;;
7613;SDS011;3848;42.016;23.098;2022-10-16T13:12:07;15.67;;;14.67;;
7613;SDS011;3848;42.016;23.098;2022-10-16T13:17:50;17.27;;;16.23;;
7613;SDS011;3848;42.016;23.098;2022-10-16T13:20:24;18.80;;;17.70;;
7613;SDS011;3848;42.016;23.098;2022-10-16T13:23:02;17.87;;;16.87;;
7613;SDS011;3848;42.016;23.098;2022-10-16T13:25:38;18.67;;;17.67;;
7613;SDS011;3848;42.016;23.098;2022-10-16T13:28:13;20.33;;;19.13;;
7613;SDS011;3848;42.016;23.098;2022-10-16T13:30:42;19.90;;;18.70;;
7613;SDS011;3848;42.016;23.098;2022-10-16T13:33:17;20.03;;;18.93;;
7613;SDS011;3848;42.016;23.098;2022-10-16T13:35:50;21.90;;;20.47;;
7613;SDS011;3848;42.016;23.098;2022-10-16T13:38:20;20.80;;;19.43;;
7613;SDS011;3848;42.016;23.098;2022-10-16T13:40:49;20.00;;;18.60;;
7613;SDS011;3848;42.016;23.098;2022-10-16T13:43:17;19.67;;;18.57;;
7613;SDS011;3848;42.016;23.098;2022-10-16T13:45:52;20.27;;;19.17;;
7613;SDS011;3848;42.016;23.098;2022-10-16T13:48:23;20.27;;;18.97;;
7613;SDS011;3848;42.016;23.098;2022-10-16T13:51:00;21.40;;;20.10;;
7613;SDS011;3848;42.016;23.098;2022-10-16T13:53:34;22.43;;;21.03;;
7613;SDS011;3848;42.016;23.098;2022-10-16T13:56:03;22.43;;;20.93;;
7613;SDS011;3848;42.016;23.098;2022-10-16T13:58:31;19.93;;;18.83;;
7613;SDS011;3848;42.016;23.098;2022-10-16T14:00:59;22.63;;;21.07;;
7613;SDS011;3848;42.016;23.098;2022-10-16T14:03:28;21.30;;;20.07;;
7613;SDS011;3848;42.016;23.098;2022-10-16T14:05:57;21.97;;;20.50;;
7613;SDS011;3848;42.016;23.098;2022-10-16T14:08:26;20.77;;;19.67;;
7613;SDS011;3848;42.016;23.098;2022-10-16T14:10:57;21.73;;;20.53;;
7613;SDS011;3848;42.016;23.098;2022-10-16T14:13:29;21.73;;;20.43;;
7613;SDS011;3848;42.016;23.098;2022-10-16T14:15:59;22.63;;;21.23;;
7613;SDS011;3848;42.016;23.098;2022-10-16T14:18:31;22.43;;;21.17;;
7613;SDS011;3848;42.016;23.098;2022-10-16T14:21:02;20.23;;;18.93;;
7613;SDS011;3848;42.016;23.098;2022-10-16T14:23:31;21.97;;;20.73;;
7613;SDS011;3848;42.016;23.098;2022-10-16T14:26:13;21.57;;;20.37;;
7613;SDS011;3848;42.016;23.098;2022-10-16T14:28:41;22.47;;;20.90;;
7613;SDS011;3848;42.016;23.098;2022-10-16T14:31:26;20.87;;;19.77;;
7613;SDS011;3848;42.016;23.098;2022-10-16T14:33:54;20.80;;;19.37;;
7613;SDS011;3848;42.016;23.098;2022-10-16T14:36:22;20.73;;;19.53;;
7613;SDS011;3848;42.016;23.098;2022-10-16T14:38:54;21.03;;;19.57;;
7613;SDS011;3848;42.016;23.098;2022-10-16T14:41:27;20.70;;;19.23;;
7613;SDS011;3848;42.016;23.098;2022-10-16T14:43:55;20.97;;;19.73;;
7613;SDS011;3848;42.016;23.098;2022-10-16T14:46:28;20.20;;;19.00;;
7613;SDS011;3848;42.016;23.098;2022-10-16T14:48:59;19.87;;;18.67;;
7613;SDS011;3848;42.016;23.098;2022-10-16T14:51:29;20.50;;;19.23;;
7613;SDS011;3848;42.016;23.098;2022-10-16T14:53:57;20.17;;;19.07;;
7613;SDS011;3848;42.016;23.098;2022-10-16T14:56:24;20.80;;;19.50;;
7613;SDS011;3848;42.016;23.098;2022-10-16T14:58:55;20.50;;;19.40;;
7613;SDS011;3848;42.016;23.098;2022-10-16T15:01:23;19.63;;;18.63;;